sensor_id;sensor_type;location;lat;lon;timestamp;P1;durP1;ratioP1;P2;durP2;ratioP2
25449;SDS011;13371;52.080;5.624;2022-07-29T00:02:21;4.47;;;1.00;;
25449;SDS011;13371;52.080;5.624;2022-07-29T00:04:46;3.75;;;1.25;;
25449;SDS011;13371;52.080;5.624;2022-07-29T00:07:12;5.10;;;1.55;;
25449;SDS011;13371;52.080;5.624;2022-07-29T00:09:38;4.22;;;1.15;;
25449;SDS011;13371;52.080;5.624;2022-07-29T00:12:03;3.83;;;1.08;;
25449;SDS011;13371;52.080;5.624;2022-07-29T00:14:30;2.05;;;1.10;;
25449;SDS011;13371;52.080;5.624;2022-07-29T00:16:55;2.38;;;1.02;;
25449;SDS011;13371;52.080;5.624;2022-07-29T00:19:21;3.72;;;1.10;;
25449;SDS011;13371;52.080;5.624;2022-07-29T00:21:46;5.40;;;1.20;;
25449;SDS011;13371;52.080;5.624;2022-07-29T00:24:12;3.03;;;1.17;;
25449;SDS011;13371;52.080;5.624;2022-07-29T00:26:38;1.65;;;1.00;;
25449;SDS011;13371;52.080;5.624;2022-07-29T00:29:03;2.33;;;1.13;;
25449;SDS011;13371;52.080;5.624;2022-07-29T00:31:29;6.45;;;1.77;;
25449;SDS011;13371;52.080;5.624;2022-07-29T00:33:55;5.60;;;1.33;;
25449;SDS011;13371;52.080;5.624;2022-07-29T00:36:21;3.30;;;0.90;;
25449;SDS011;13371;52.080;5.624;2022-07-29T00:38:50;1.95;;;0.95;;
25449;SDS011;13371;52.080;5.624;2022-07-29T00:41:16;1.63;;;0.82;;
25449;SDS011;13371;52.080;5.624;2022-07-29T00:43:42;4.10;;;1.10;;
25449;SDS011;13371;52.080;5.624;2022-07-29T00:46:08;3.55;;;1.33;;
25449;SDS011;13371;52.080;5.624;2022-07-29T00:48:34;3.70;;;1.42;;
25449;SDS011;13371;52.080;5.624;2022-07-29T00:51:01;2.30;;;0.93;;
25449;SDS011;13371;52.080;5.624;2022-07-29T00:53:29;3.97;;;1.20;;
25449;SDS011;13371;52.080;5.624;2022-07-29T00:55:55;3.58;;;0.98;;
25449;SDS011;13371;52.080;5.624;2022-07-29T00:58:22;4.63;;;1.10;;
25449;SDS011;13371;52.080;5.624;2022-07-29T01:00:48;5.00;;;1.50;;
25449;SDS011;13371;52.080;5.624;2022-07-29T01:03:14;4.22;;;1.23;;
25449;SDS011;13371;52.080;5.624;2022-07-29T01:05:40;3.33;;;1.35;;
25449;SDS011;13371;52.080;5.624;2022-07-29T01:08:07;3.05;;;1.40;;
25449;SDS011;13371;52.080;5.624;2022-07-29T01:10:34;2.72;;;1.20;;
25449;SDS011;13371;52.080;5.624;2022-07-29T01:13:03;4.63;;;1.25;;
25449;SDS011;13371;52.080;5.624;2022-07-29T01:15:29;3.67;;;1.48;;
25449;SDS011;13371;52.080;5.624;2022-07-29T01:18:07;3.90;;;1.42;;
25449;SDS011;13371;52.080;5.624;2022-07-29T01:34:03;3.75;;;1.40;;
25449;SDS011;13371;52.080;5.624;2022-07-29T01:36:37;3.22;;;1.52;;
25449;SDS011;13371;52.080;5.624;2022-07-29T01:41:38;4.30;;;1.38;;
25449;SDS011;13371;52.080;5.624;2022-07-29T01:44:20;2.22;;;1.27;;
25449;SDS011;13371;52.080;5.624;2022-07-29T01:46:56;5.10;;;1.40;;
25449;SDS011;13371;52.080;5.624;2022-07-29T01:49:25;4.70;;;1.40;;
25449;SDS011;13371;52.080;5.624;2022-07-29T01:51:57;5.80;;;1.45;;
25449;SDS011;13371;52.080;5.624;2022-07-29T01:56:59;3.33;;;1.15;;
25449;SDS011;13371;52.080;5.624;2022-07-29T01:59:26;6.28;;;1.80;;
25449;SDS011;13371;52.080;5.624;2022-07-29T02:01:57;3.58;;;1.17;;
25449;SDS011;13371;52.080;5.624;2022-07-29T02:04:24;3.15;;;1.48;;
25449;SDS011;13371;52.080;5.624;2022-07-29T02:06:52;4.47;;;1.38;;
25449;SDS011;13371;52.080;5.624;2022-07-29T02:09:21;5.10;;;1.48;;
25449;SDS011;13371;52.080;5.624;2022-07-29T02:11:51;3.53;;;1.60;;
25449;SDS011;13371;52.080;5.624;2022-07-29T02:14:19;3.83;;;1.58;;
25449;SDS011;13371;52.080;5.624;2022-07-29T02:16:47;6.15;;;1.50;;
25449;SDS011;13371;52.080;5.624;2022-07-29T02:19:14;4.93;;;1.52;;
25449;SDS011;13371;52.080;5.624;2022-07-29T02:21:43;4.50;;;1.60;;
25449;SDS011;13371;52.080;5.624;2022-07-29T02:24:11;5.35;;;1.60;;
25449;SDS011;13371;52.080;5.624;2022-07-29T02:26:37;3.25;;;1.50;;
25449;SDS011;13371;52.080;5.624;2022-07-29T02:29:06;4.20;;;1.40;;
25449;SDS011;13371;52.080;5.624;2022-07-29T02:31:34;3.40;;;1.45;;
25449;SDS011;13371;52.080;5.624;2022-07-29T02:34:02;5.47;;;2.08;;
25449;SDS011;13371;52.080;5.624;2022-07-29T02:36:29;5.63;;;1.60;;
25449;SDS011;13371;52.080;5.624;2022-07-29T02:38:57;2.55;;;1.40;;
25449;SDS011;13371;52.080;5.624;2022-07-29T02:44:16;4.03;;;1.95;;
25449;SDS011;13371;52.080;5.624;2022-07-29T02:46:45;3.10;;;1.65;;
25449;SDS011;13371;52.080;5.624;2022-07-29T02:51:51;3.50;;;1.85;;
25449;SDS011;13371;52.080;5.624;2022-07-29T02:54:23;3.13;;;1.40;;
25449;SDS011;13371;52.080;5.624;2022-07-29T02:57:11;7.63;;;1.80;;
25449;SDS011;13371;52.080;5.624;2022-07-29T02:59:43;6.68;;;1.80;;
25449;SDS011;13371;52.080;5.624;2022-07-29T03:02:12;6.03;;;1.90;;
25449;SDS011;13371;52.080;5.624;2022-07-29T03:04:41;4.10;;;1.67;;
25449;SDS011;13371;52.080;5.624;2022-07-29T03:07:08;5.43;;;1.95;;
25449;SDS011;13371;52.080;5.624;2022-07-29T03:09:35;3.42;;;1.67;;
25449;SDS011;13371;52.080;5.624;2022-07-29T03:12:02;3.83;;;1.55;;
25449;SDS011;13371;52.080;5.624;2022-07-29T03:14:29;3.78;;;1.98;;
25449;SDS011;13371;52.080;5.624;2022-07-29T03:16:56;3.72;;;1.70;;
25449;SDS011;13371;52.080;5.624;2022-07-29T03:19:23;3.35;;;1.73;;
25449;SDS011;13371;52.080;5.624;2022-07-29T03:21:49;4.93;;;1.80;;
25449;SDS011;13371;52.080;5.624;2022-07-29T03:24:25;9.13;;;2.08;;
25449;SDS011;13371;52.080;5.624;2022-07-29T03:26:52;4.40;;;1.80;;
25449;SDS011;13371;52.080;5.624;2022-07-29T03:29:17;2.20;;;1.40;;
25449;SDS011;13371;52.080;5.624;2022-07-29T03:31:43;7.47;;;1.95;;
25449;SDS011;13371;52.080;5.624;2022-07-29T03:34:08;4.68;;;1.83;;
25449;SDS011;13371;52.080;5.624;2022-07-29T03:36:34;4.05;;;1.73;;
25449;SDS011;13371;52.080;5.624;2022-07-29T03:38:59;4.28;;;2.10;;
25449;SDS011;13371;52.080;5.624;2022-07-29T03:41:26;4.25;;;1.92;;
25449;SDS011;13371;52.080;5.624;2022-07-29T03:43:52;5.07;;;1.75;;
25449;SDS011;13371;52.080;5.624;2022-07-29T03:46:20;7.03;;;2.58;;
25449;SDS011;13371;52.080;5.624;2022-07-29T03:48:49;2.38;;;1.70;;
25449;SDS011;13371;52.080;5.624;2022-07-29T03:51:17;3.40;;;2.05;;
25449;SDS011;13371;52.080;5.624;2022-07-29T03:53:43;4.07;;;2.00;;
25449;SDS011;13371;52.080;5.624;2022-07-29T03:56:09;6.18;;;2.13;;
25449;SDS011;13371;52.080;5.624;2022-07-29T03:58:40;8.05;;;2.10;;
25449;SDS011;13371;52.080;5.624;2022-07-29T04:01:06;5.82;;;1.92;;
25449;SDS011;13371;52.080;5.624;2022-07-29T04:03:32;6.07;;;2.13;;
25449;SDS011;13371;52.080;5.624;2022-07-29T04:05:59;5.20;;;1.88;;
25449;SDS011;13371;52.080;5.624;2022-07-29T04:08:26;4.07;;;2.05;;
25449;SDS011;13371;52.080;5.624;2022-07-29T04:10:51;7.63;;;2.22;;
25449;SDS011;13371;52.080;5.624;2022-07-29T04:13:17;3.20;;;1.92;;
25449;SDS011;13371;52.080;5.624;2022-07-29T04:15:44;7.25;;;1.85;;
25449;SDS011;13371;52.080;5.624;2022-07-29T04:18:09;5.00;;;2.08;;
25449;SDS011;13371;52.080;5.624;2022-07-29T04:20:35;4.82;;;1.95;;
25449;SDS011;13371;52.080;5.624;2022-07-29T04:23:00;5.90;;;1.70;;
25449;SDS011;13371;52.080;5.624;2022-07-29T04:25:26;3.72;;;1.60;;
25449;SDS011;13371;52.080;5.624;2022-07-29T04:27:51;3.88;;;1.90;;
25449;SDS011;13371;52.080;5.624;2022-07-29T04:30:26;3.50;;;1.70;;
25449;SDS011;13371;52.080;5.624;2022-07-29T04:32:51;3.40;;;1.95;;
25449;SDS011;13371;52.080;5.624;2022-07-29T04:35:18;8.07;;;2.15;;
25449;SDS011;13371;52.080;5.624;2022-07-29T04:37:44;5.38;;;2.25;;
25449;SDS011;13371;52.080;5.624;2022-07-29T04:40:10;3.90;;;1.73;;
25449;SDS011;13371;52.080;5.624;2022-07-29T04:42:36;5.78;;;2.00;;
25449;SDS011;13371;52.080;5.624;2022-07-29T04:45:02;4.70;;;2.10;;
25449;SDS011;13371;52.080;5.624;2022-07-29T04:47:28;7.88;;;1.60;;
25449;SDS011;13371;52.080;5.624;2022-07-29T04:49:53;5.50;;;2.00;;
25449;SDS011;13371;52.080;5.624;2022-07-29T04:52:20;4.88;;;1.60;;
25449;SDS011;13371;52.080;5.624;2022-07-29T04:54:45;5.15;;;2.20;;
25449;SDS011;13371;52.080;5.624;2022-07-29T04:57:11;3.55;;;2.17;;
25449;SDS011;13371;52.080;5.624;2022-07-29T04:59:36;3.08;;;1.90;;
25449;SDS011;13371;52.080;5.624;2022-07-29T05:02:02;6.70;;;2.20;;
25449;SDS011;13371;52.080;5.624;2022-07-29T05:04:28;5.57;;;2.22;;
25449;SDS011;13371;52.080;5.624;2022-07-29T05:06:53;8.30;;;2.15;;
25449;SDS011;13371;52.080;5.624;2022-07-29T05:09:19;4.00;;;2.03;;
25449;SDS011;13371;52.080;5.624;2022-07-29T05:11:44;3.78;;;1.95;;
25449;SDS011;13371;52.080;5.624;2022-07-29T05:14:10;6.32;;;1.88;;
25449;SDS011;13371;52.080;5.624;2022-07-29T05:16:35;4.20;;;1.80;;
25449;SDS011;13371;52.080;5.624;2022-07-29T05:19:01;3.30;;;1.80;;
25449;SDS011;13371;52.080;5.624;2022-07-29T05:21:27;4.88;;;2.20;;
25449;SDS011;13371;52.080;5.624;2022-07-29T05:23:52;5.30;;;1.70;;
25449;SDS011;13371;52.080;5.624;2022-07-29T05:26:18;2.30;;;1.40;;
25449;SDS011;13371;52.080;5.624;2022-07-29T05:28:43;7.75;;;2.00;;
25449;SDS011;13371;52.080;5.624;2022-07-29T05:31:09;5.13;;;1.80;;
25449;SDS011;13371;52.080;5.624;2022-07-29T05:33:34;5.50;;;1.77;;
25449;SDS011;13371;52.080;5.624;2022-07-29T05:36:00;7.07;;;2.03;;
25449;SDS011;13371;52.080;5.624;2022-07-29T05:38:26;3.22;;;1.70;;
25449;SDS011;13371;52.080;5.624;2022-07-29T05:40:51;3.85;;;2.15;;
25449;SDS011;13371;52.080;5.624;2022-07-29T05:43:17;6.55;;;2.22;;
25449;SDS011;13371;52.080;5.624;2022-07-29T05:45:42;4.13;;;2.10;;
25449;SDS011;13371;52.080;5.624;2022-07-29T05:48:08;4.63;;;2.03;;
25449;SDS011;13371;52.080;5.624;2022-07-29T05:50:34;4.22;;;2.15;;
25449;SDS011;13371;52.080;5.624;2022-07-29T05:52:59;7.40;;;2.00;;
25449;SDS011;13371;52.080;5.624;2022-07-29T05:55:25;3.05;;;1.98;;
25449;SDS011;13371;52.080;5.624;2022-07-29T05:57:51;5.03;;;1.88;;
25449;SDS011;13371;52.080;5.624;2022-07-29T06:00:17;3.72;;;2.03;;
25449;SDS011;13371;52.080;5.624;2022-07-29T06:02:43;3.97;;;1.92;;
25449;SDS011;13371;52.080;5.624;2022-07-29T06:05:08;5.82;;;2.30;;
25449;SDS011;13371;52.080;5.624;2022-07-29T06:07:34;6.03;;;2.15;;
25449;SDS011;13371;52.080;5.624;2022-07-29T06:09:59;4.22;;;2.10;;
25449;SDS011;13371;52.080;5.624;2022-07-29T06:12:25;2.65;;;1.88;;
25449;SDS011;13371;52.080;5.624;2022-07-29T06:14:51;3.42;;;1.80;;
25449;SDS011;13371;52.080;5.624;2022-07-29T06:17:16;3.72;;;1.80;;
25449;SDS011;13371;52.080;5.624;2022-07-29T06:19:42;4.95;;;1.80;;
25449;SDS011;13371;52.080;5.624;2022-07-29T06:22:07;4.55;;;2.08;;
25449;SDS011;13371;52.080;5.624;2022-07-29T06:24:33;9.75;;;1.83;;
25449;SDS011;13371;52.080;5.624;2022-07-29T06:27:02;7.18;;;2.00;;
25449;SDS011;13371;52.080;5.624;2022-07-29T06:29:31;6.32;;;2.17;;
25449;SDS011;13371;52.080;5.624;2022-07-29T06:31:56;5.90;;;2.25;;
25449;SDS011;13371;52.080;5.624;2022-07-29T06:34:22;5.03;;;1.88;;
25449;SDS011;13371;52.080;5.624;2022-07-29T06:36:47;5.13;;;2.17;;
25449;SDS011;13371;52.080;5.624;2022-07-29T06:39:14;5.95;;;2.13;;
25449;SDS011;13371;52.080;5.624;2022-07-29T06:41:40;4.70;;;2.05;;
25449;SDS011;13371;52.080;5.624;2022-07-29T06:44:05;4.05;;;2.42;;
25449;SDS011;13371;52.080;5.624;2022-07-29T06:46:31;4.13;;;2.38;;
25449;SDS011;13371;52.080;5.624;2022-07-29T06:48:57;5.70;;;2.20;;
25449;SDS011;13371;52.080;5.624;2022-07-29T06:51:23;4.97;;;2.20;;
25449;SDS011;13371;52.080;5.624;2022-07-29T06:53:48;3.65;;;2.30;;
25449;SDS011;13371;52.080;5.624;2022-07-29T06:56:17;3.05;;;2.15;;
25449;SDS011;13371;52.080;5.624;2022-07-29T06:58:43;5.53;;;2.00;;
25449;SDS011;13371;52.080;5.624;2022-07-29T07:01:08;3.58;;;2.00;;
25449;SDS011;13371;52.080;5.624;2022-07-29T07:03:34;7.90;;;2.40;;
25449;SDS011;13371;52.080;5.624;2022-07-29T07:06:00;5.75;;;2.63;;
25449;SDS011;13371;52.080;5.624;2022-07-29T07:08:25;5.72;;;2.38;;
25449;SDS011;13371;52.080;5.624;2022-07-29T07:10:51;5.00;;;2.30;;
25449;SDS011;13371;52.080;5.624;2022-07-29T07:13:17;4.57;;;2.33;;
25449;SDS011;13371;52.080;5.624;2022-07-29T07:15:44;5.18;;;2.20;;
25449;SDS011;13371;52.080;5.624;2022-07-29T07:18:12;4.07;;;2.22;;
25449;SDS011;13371;52.080;5.624;2022-07-29T07:20:39;6.95;;;2.47;;
25449;SDS011;13371;52.080;5.624;2022-07-29T07:23:04;3.25;;;2.15;;
25449;SDS011;13371;52.080;5.624;2022-07-29T07:25:30;8.77;;;2.80;;
25449;SDS011;13371;52.080;5.624;2022-07-29T07:27:56;5.90;;;2.47;;
25449;SDS011;13371;52.080;5.624;2022-07-29T07:30:21;5.03;;;2.60;;
25449;SDS011;13371;52.080;5.624;2022-07-29T07:32:47;3.95;;;2.50;;
25449;SDS011;13371;52.080;5.624;2022-07-29T07:35:13;5.95;;;2.40;;
25449;SDS011;13371;52.080;5.624;2022-07-29T07:37:39;4.82;;;2.30;;
25449;SDS011;13371;52.080;5.624;2022-07-29T07:40:05;7.78;;;2.33;;
25449;SDS011;13371;52.080;5.624;2022-07-29T07:42:32;8.57;;;2.63;;
25449;SDS011;13371;52.080;5.624;2022-07-29T07:44:58;4.32;;;2.45;;
25449;SDS011;13371;52.080;5.624;2022-07-29T07:47:24;5.97;;;2.28;;
25449;SDS011;13371;52.080;5.624;2022-07-29T07:49:49;8.18;;;2.60;;
25449;SDS011;13371;52.080;5.624;2022-07-29T07:52:16;6.10;;;2.80;;
25449;SDS011;13371;52.080;5.624;2022-07-29T07:54:43;8.02;;;3.15;;
25449;SDS011;13371;52.080;5.624;2022-07-29T07:57:09;5.43;;;2.65;;
25449;SDS011;13371;52.080;5.624;2022-07-29T07:59:36;5.30;;;2.20;;
25449;SDS011;13371;52.080;5.624;2022-07-29T08:02:02;3.75;;;2.20;;
25449;SDS011;13371;52.080;5.624;2022-07-29T08:04:27;8.15;;;2.50;;
25449;SDS011;13371;52.080;5.624;2022-07-29T08:06:53;7.35;;;2.50;;
25449;SDS011;13371;52.080;5.624;2022-07-29T08:09:19;5.50;;;2.35;;
25449;SDS011;13371;52.080;5.624;2022-07-29T08:11:45;6.05;;;2.58;;
25449;SDS011;13371;52.080;5.624;2022-07-29T08:14:11;5.90;;;2.97;;
25449;SDS011;13371;52.080;5.624;2022-07-29T08:16:38;5.60;;;2.45;;
25449;SDS011;13371;52.080;5.624;2022-07-29T08:19:05;4.43;;;2.70;;
25449;SDS011;13371;52.080;5.624;2022-07-29T08:21:30;9.45;;;2.55;;
25449;SDS011;13371;52.080;5.624;2022-07-29T08:23:56;4.03;;;2.08;;
25449;SDS011;13371;52.080;5.624;2022-07-29T08:26:41;4.75;;;2.47;;
25449;SDS011;13371;52.080;5.624;2022-07-29T08:29:07;6.30;;;2.53;;
25449;SDS011;13371;52.080;5.624;2022-07-29T08:31:34;4.47;;;2.38;;
25449;SDS011;13371;52.080;5.624;2022-07-29T08:34:00;6.50;;;2.30;;
25449;SDS011;13371;52.080;5.624;2022-07-29T08:36:27;5.00;;;2.35;;
25449;SDS011;13371;52.080;5.624;2022-07-29T08:38:53;3.78;;;2.03;;
25449;SDS011;13371;52.080;5.624;2022-07-29T08:41:19;6.45;;;2.47;;
25449;SDS011;13371;52.080;5.624;2022-07-29T08:43:45;5.78;;;1.90;;
25449;SDS011;13371;52.080;5.624;2022-07-29T08:46:11;5.47;;;1.85;;
25449;SDS011;13371;52.080;5.624;2022-07-29T08:48:36;5.60;;;2.00;;
25449;SDS011;13371;52.080;5.624;2022-07-29T08:51:03;6.35;;;1.98;;
25449;SDS011;13371;52.080;5.624;2022-07-29T08:53:30;4.70;;;2.10;;
25449;SDS011;13371;52.080;5.624;2022-07-29T08:55:56;7.18;;;2.00;;
25449;SDS011;13371;52.080;5.624;2022-07-29T08:58:23;5.25;;;2.05;;
25449;SDS011;13371;52.080;5.624;2022-07-29T09:00:50;8.02;;;2.30;;
25449;SDS011;13371;52.080;5.624;2022-07-29T09:03:18;5.55;;;1.80;;
25449;SDS011;13371;52.080;5.624;2022-07-29T09:05:45;4.40;;;1.83;;
25449;SDS011;13371;52.080;5.624;2022-07-29T09:08:12;5.00;;;2.30;;
25449;SDS011;13371;52.080;5.624;2022-07-29T09:10:38;4.00;;;2.10;;
25449;SDS011;13371;52.080;5.624;2022-07-29T09:13:04;4.97;;;2.00;;
25449;SDS011;13371;52.080;5.624;2022-07-29T09:15:30;6.00;;;2.22;;
25449;SDS011;13371;52.080;5.624;2022-07-29T09:17:56;6.18;;;2.22;;
25449;SDS011;13371;52.080;5.624;2022-07-29T09:20:23;4.40;;;1.98;;
25449;SDS011;13371;52.080;5.624;2022-07-29T09:22:50;3.45;;;2.00;;
25449;SDS011;13371;52.080;5.624;2022-07-29T09:25:34;4.53;;;1.70;;
25449;SDS011;13371;52.080;5.624;2022-07-29T09:28:11;4.88;;;1.80;;
25449;SDS011;13371;52.080;5.624;2022-07-29T09:30:51;6.15;;;2.50;;
25449;SDS011;13371;52.080;5.624;2022-07-29T09:33:23;4.82;;;1.90;;
25449;SDS011;13371;52.080;5.624;2022-07-29T09:36:06;3.78;;;2.10;;
25449;SDS011;13371;52.080;5.624;2022-07-29T09:38:34;3.33;;;1.55;;
25449;SDS011;13371;52.080;5.624;2022-07-29T09:41:02;4.20;;;1.90;;
25449;SDS011;13371;52.080;5.624;2022-07-29T09:43:28;4.40;;;1.88;;
25449;SDS011;13371;52.080;5.624;2022-07-29T09:45:54;4.93;;;1.80;;
25449;SDS011;13371;52.080;5.624;2022-07-29T09:48:21;7.45;;;1.75;;
25449;SDS011;13371;52.080;5.624;2022-07-29T09:50:50;3.42;;;2.03;;
25449;SDS011;13371;52.080;5.624;2022-07-29T09:53:33;6.00;;;2.00;;
25449;SDS011;13371;52.080;5.624;2022-07-29T09:56:03;5.85;;;2.25;;
25449;SDS011;13371;52.080;5.624;2022-07-29T09:58:29;6.75;;;1.98;;
25449;SDS011;13371;52.080;5.624;2022-07-29T10:00:58;4.10;;;1.80;;
25449;SDS011;13371;52.080;5.624;2022-07-29T10:03:24;3.45;;;1.73;;
25449;SDS011;13371;52.080;5.624;2022-07-29T10:06:09;3.55;;;1.90;;
25449;SDS011;13371;52.080;5.624;2022-07-29T10:08:36;7.53;;;1.90;;
25449;SDS011;13371;52.080;5.624;2022-07-29T10:11:08;3.20;;;1.52;;
25449;SDS011;13371;52.080;5.624;2022-07-29T10:13:41;8.23;;;1.88;;
25449;SDS011;13371;52.080;5.624;2022-07-29T10:16:08;11.63;;;2.20;;
25449;SDS011;13371;52.080;5.624;2022-07-29T10:18:35;7.25;;;2.08;;
25449;SDS011;13371;52.080;5.624;2022-07-29T10:21:03;9.75;;;2.55;;
25449;SDS011;13371;52.080;5.624;2022-07-29T10:23:29;7.90;;;2.00;;
25449;SDS011;13371;52.080;5.624;2022-07-29T10:25:55;4.95;;;1.90;;
25449;SDS011;13371;52.080;5.624;2022-07-29T10:28:21;3.65;;;1.98;;
25449;SDS011;13371;52.080;5.624;2022-07-29T10:30:48;7.25;;;2.20;;
25449;SDS011;13371;52.080;5.624;2022-07-29T10:44:41;2.88;;;1.73;;
25449;SDS011;13371;52.080;5.624;2022-07-29T10:47:08;6.75;;;2.50;;
25449;SDS011;13371;52.080;5.624;2022-07-29T10:49:55;5.35;;;2.15;;
25449;SDS011;13371;52.080;5.624;2022-07-29T10:52:22;6.88;;;2.97;;
25449;SDS011;13371;52.080;5.624;2022-07-29T10:54:49;4.15;;;2.30;;
25449;SDS011;13371;52.080;5.624;2022-07-29T10:57:22;5.90;;;2.30;;
25449;SDS011;13371;52.080;5.624;2022-07-29T11:07:33;5.05;;;2.40;;
25449;SDS011;13371;52.080;5.624;2022-07-29T11:15:08;5.97;;;1.63;;
25449;SDS011;13371;52.080;5.624;2022-07-29T11:20:31;4.53;;;1.65;;
25449;SDS011;13371;52.080;5.624;2022-07-29T11:23:00;3.58;;;1.73;;
25449;SDS011;13371;52.080;5.624;2022-07-29T11:25:26;4.78;;;1.85;;
25449;SDS011;13371;52.080;5.624;2022-07-29T11:27:52;4.47;;;1.90;;
25449;SDS011;13371;52.080;5.624;2022-07-29T11:30:49;5.20;;;2.10;;
25449;SDS011;13371;52.080;5.624;2022-07-29T11:33:29;5.45;;;1.73;;
25449;SDS011;13371;52.080;5.624;2022-07-29T11:36:09;4.45;;;1.60;;
25449;SDS011;13371;52.080;5.624;2022-07-29T11:38:39;8.52;;;1.77;;
25449;SDS011;13371;52.080;5.624;2022-07-29T11:41:21;5.68;;;1.70;;
25449;SDS011;13371;52.080;5.624;2022-07-29T11:43:50;3.13;;;1.70;;
25449;SDS011;13371;52.080;5.624;2022-07-29T11:49:08;4.43;;;1.70;;
25449;SDS011;13371;52.080;5.624;2022-07-29T11:51:35;4.35;;;1.73;;
25449;SDS011;13371;52.080;5.624;2022-07-29T11:54:02;2.80;;;1.38;;
25449;SDS011;13371;52.080;5.624;2022-07-29T11:56:30;5.22;;;2.10;;
25449;SDS011;13371;52.080;5.624;2022-07-29T11:59:06;5.30;;;1.67;;
25449;SDS011;13371;52.080;5.624;2022-07-29T12:01:34;7.38;;;1.52;;
25449;SDS011;13371;52.080;5.624;2022-07-29T12:04:06;2.92;;;1.42;;
25449;SDS011;13371;52.080;5.624;2022-07-29T12:06:33;5.95;;;1.95;;
25449;SDS011;13371;52.080;5.624;2022-07-29T12:08:59;4.80;;;1.60;;
25449;SDS011;13371;52.080;5.624;2022-07-29T12:11:25;8.40;;;2.38;;
25449;SDS011;13371;52.080;5.624;2022-07-29T12:13:51;7.20;;;1.90;;
25449;SDS011;13371;52.080;5.624;2022-07-29T12:16:17;6.68;;;1.85;;
25449;SDS011;13371;52.080;5.624;2022-07-29T12:18:54;5.22;;;1.92;;
25449;SDS011;13371;52.080;5.624;2022-07-29T12:21:21;4.88;;;1.48;;
25449;SDS011;13371;52.080;5.624;2022-07-29T12:23:53;5.47;;;1.60;;
25449;SDS011;13371;52.080;5.624;2022-07-29T12:26:19;2.75;;;1.45;;
25449;SDS011;13371;52.080;5.624;2022-07-29T12:28:45;6.38;;;2.25;;
25449;SDS011;13371;52.080;5.624;2022-07-29T12:31:15;4.38;;;1.83;;
25449;SDS011;13371;52.080;5.624;2022-07-29T12:33:40;6.85;;;2.08;;
25449;SDS011;13371;52.080;5.624;2022-07-29T12:36:07;6.57;;;1.70;;
25449;SDS011;13371;52.080;5.624;2022-07-29T12:38:33;6.47;;;2.40;;
25449;SDS011;13371;52.080;5.624;2022-07-29T12:40:59;5.20;;;2.38;;
25449;SDS011;13371;52.080;5.624;2022-07-29T12:43:25;10.38;;;2.03;;
25449;SDS011;13371;52.080;5.624;2022-07-29T12:45:52;6.50;;;2.28;;
25449;SDS011;13371;52.080;5.624;2022-07-29T12:48:35;4.22;;;1.85;;
25449;SDS011;13371;52.080;5.624;2022-07-29T12:51:03;9.27;;;2.38;;
25449;SDS011;13371;52.080;5.624;2022-07-29T12:53:31;5.60;;;2.17;;
25449;SDS011;13371;52.080;5.624;2022-07-29T12:55:57;5.50;;;2.53;;
25449;SDS011;13371;52.080;5.624;2022-07-29T13:09:13;7.53;;;2.20;;
25449;SDS011;13371;52.080;5.624;2022-07-29T13:14:11;4.47;;;2.00;;
25449;SDS011;13371;52.080;5.624;2022-07-29T13:17:02;4.72;;;1.92;;
25449;SDS011;13371;52.080;5.624;2022-07-29T13:22:07;5.72;;;2.22;;
25449;SDS011;13371;52.080;5.624;2022-07-29T13:27:18;5.28;;;2.20;;
25449;SDS011;13371;52.080;5.624;2022-07-29T13:29:45;5.35;;;2.33;;
25449;SDS011;13371;52.080;5.624;2022-07-29T13:32:11;9.57;;;2.60;;
25449;SDS011;13371;52.080;5.624;2022-07-29T13:34:37;5.53;;;1.98;;
25449;SDS011;13371;52.080;5.624;2022-07-29T13:37:03;7.47;;;2.05;;
25449;SDS011;13371;52.080;5.624;2022-07-29T13:39:29;5.35;;;2.10;;
25449;SDS011;13371;52.080;5.624;2022-07-29T13:41:55;4.47;;;2.10;;
25449;SDS011;13371;52.080;5.624;2022-07-29T13:44:21;5.90;;;2.25;;
25449;SDS011;13371;52.080;5.624;2022-07-29T13:46:46;5.05;;;2.60;;
25449;SDS011;13371;52.080;5.624;2022-07-29T13:49:12;7.22;;;2.08;;
25449;SDS011;13371;52.080;5.624;2022-07-29T13:51:37;8.38;;;2.15;;
25449;SDS011;13371;52.080;5.624;2022-07-29T13:54:03;4.03;;;1.98;;
25449;SDS011;13371;52.080;5.624;2022-07-29T13:56:29;5.15;;;2.30;;
25449;SDS011;13371;52.080;5.624;2022-07-29T13:58:55;6.53;;;2.30;;
25449;SDS011;13371;52.080;5.624;2022-07-29T14:01:21;5.75;;;2.17;;
25449;SDS011;13371;52.080;5.624;2022-07-29T14:03:46;7.05;;;2.00;;
25449;SDS011;13371;52.080;5.624;2022-07-29T14:06:12;8.25;;;2.30;;
25449;SDS011;13371;52.080;5.624;2022-07-29T14:08:38;10.00;;;2.13;;
25449;SDS011;13371;52.080;5.624;2022-07-29T14:11:03;7.07;;;2.97;;
25449;SDS011;13371;52.080;5.624;2022-07-29T14:13:29;6.85;;;2.33;;
25449;SDS011;13371;52.080;5.624;2022-07-29T14:15:55;5.40;;;1.67;;
25449;SDS011;13371;52.080;5.624;2022-07-29T14:18:21;3.15;;;1.70;;
25449;SDS011;13371;52.080;5.624;2022-07-29T14:20:46;4.32;;;1.95;;
25449;SDS011;13371;52.080;5.624;2022-07-29T14:23:12;8.93;;;1.98;;
25449;SDS011;13371;52.080;5.624;2022-07-29T14:25:37;5.55;;;2.35;;
25449;SDS011;13371;52.080;5.624;2022-07-29T14:28:05;7.18;;;2.17;;
25449;SDS011;13371;52.080;5.624;2022-07-29T14:30:30;7.20;;;2.30;;
25449;SDS011;13371;52.080;5.624;2022-07-29T14:32:56;3.65;;;1.70;;
25449;SDS011;13371;52.080;5.624;2022-07-29T14:35:22;5.30;;;1.80;;
25449;SDS011;13371;52.080;5.624;2022-07-29T14:37:47;4.53;;;1.60;;
25449;SDS011;13371;52.080;5.624;2022-07-29T14:40:13;4.28;;;1.35;;
25449;SDS011;13371;52.080;5.624;2022-07-29T14:42:39;7.30;;;1.83;;
25449;SDS011;13371;52.080;5.624;2022-07-29T14:45:05;9.30;;;2.42;;
25449;SDS011;13371;52.080;5.624;2022-07-29T14:47:31;6.05;;;1.75;;
25449;SDS011;13371;52.080;5.624;2022-07-29T14:49:57;3.65;;;1.60;;
25449;SDS011;13371;52.080;5.624;2022-07-29T14:52:23;4.20;;;2.47;;
25449;SDS011;13371;52.080;5.624;2022-07-29T14:54:48;5.65;;;1.85;;
25449;SDS011;13371;52.080;5.624;2022-07-29T14:57:14;5.05;;;1.40;;
25449;SDS011;13371;52.080;5.624;2022-07-29T14:59:39;4.30;;;1.83;;
25449;SDS011;13371;52.080;5.624;2022-07-29T15:02:05;4.00;;;1.85;;
25449;SDS011;13371;52.080;5.624;2022-07-29T15:04:30;2.78;;;1.20;;
25449;SDS011;13371;52.080;5.624;2022-07-29T15:06:56;5.22;;;1.48;;
25449;SDS011;13371;52.080;5.624;2022-07-29T15:09:22;2.72;;;1.10;;
25449;SDS011;13371;52.080;5.624;2022-07-29T15:11:48;3.80;;;1.30;;
25449;SDS011;13371;52.080;5.624;2022-07-29T15:14:13;1.50;;;1.00;;
25449;SDS011;13371;52.080;5.624;2022-07-29T15:16:39;6.65;;;1.85;;
25449;SDS011;13371;52.080;5.624;2022-07-29T15:19:07;3.95;;;1.23;;
25449;SDS011;13371;52.080;5.624;2022-07-29T15:21:33;2.30;;;1.15;;
25449;SDS011;13371;52.080;5.624;2022-07-29T15:23:59;3.83;;;1.27;;
25449;SDS011;13371;52.080;5.624;2022-07-29T15:26:24;2.58;;;1.20;;
25449;SDS011;13371;52.080;5.624;2022-07-29T15:28:50;2.45;;;1.20;;
25449;SDS011;13371;52.080;5.624;2022-07-29T15:31:16;3.67;;;1.25;;
25449;SDS011;13371;52.080;5.624;2022-07-29T15:33:43;5.20;;;1.60;;
25449;SDS011;13371;52.080;5.624;2022-07-29T15:36:09;2.63;;;1.30;;
25449;SDS011;13371;52.080;5.624;2022-07-29T15:38:36;3.00;;;1.35;;
25449;SDS011;13371;52.080;5.624;2022-07-29T15:41:02;5.30;;;1.70;;
25449;SDS011;13371;52.080;5.624;2022-07-29T15:43:28;3.67;;;1.48;;
25449;SDS011;13371;52.080;5.624;2022-07-29T15:45:53;2.40;;;1.25;;
25449;SDS011;13371;52.080;5.624;2022-07-29T15:48:37;5.18;;;1.45;;
25449;SDS011;13371;52.080;5.624;2022-07-29T15:51:04;4.53;;;1.83;;
25449;SDS011;13371;52.080;5.624;2022-07-29T15:53:29;3.50;;;1.40;;
25449;SDS011;13371;52.080;5.624;2022-07-29T15:55:55;3.83;;;1.60;;
25449;SDS011;13371;52.080;5.624;2022-07-29T15:58:20;4.95;;;1.83;;
25449;SDS011;13371;52.080;5.624;2022-07-29T16:00:46;20.85;;;2.38;;
25449;SDS011;13371;52.080;5.624;2022-07-29T16:03:12;6.30;;;1.65;;